TimeEST,TemperatureF,Dew PointF,Humidity,Sea Level PressureIn,VisibilityMPH,Wind Direction,Wind SpeedMPH,Gust SpeedMPH,PrecipitationIn,Events,Conditions,WindDirDegrees,DateUTC
12:53 AM,69.1,69.1,100,29.94,7.0,SSW,4.6,-,N/A,,Scattered Clouds,210,2013-02-24 05:53:00
1:53 AM,68.0,68.0,100,29.92,6.0,SSW,5.8,-,N/A,,Scattered Clouds,210,2013-02-24 06:53:00
2:53 AM,66.9,66.9,100,29.91,6.0,SW,6.9,-,N/A,,Scattered Clouds,230,2013-02-24 07:53:00
3:11 AM,66.2,66.2,100,29.92,4.0,SSW,8.1,-,N/A,,Mostly Cloudy,210,2013-02-24 08:11:00
3:53 AM,66.9,66.0,97,29.89,4.0,SSW,9.2,-,N/A,,Mostly Cloudy,200,2013-02-24 08:53:00
4:42 AM,66.2,66.2,100,29.91,5.0,SW,8.1,-,N/A,,Overcast,220,2013-02-24 09:42:00
4:53 AM,66.9,66.9,100,29.91,5.0,SW,6.9,-,N/A,,Overcast,220,2013-02-24 09:53:00
5:53 AM,68.0,66.9,96,29.93,5.0,WSW,5.8,-,N/A,,Overcast,250,2013-02-24 10:53:00
6:53 AM,69.1,68.0,96,29.95,1.0,SW,5.8,-,N/A,,Overcast,230,2013-02-24 11:53:00
7:53 AM,70.0,69.1,97,29.95,1.0,SSW,5.8,-,N/A,,Overcast,200,2013-02-24 12:53:00
8:53 AM,70.0,69.1,97,29.97,1.0,SW,8.1,-,N/A,,Overcast,220,2013-02-24 13:53:00
9:38 AM,71.6,69.8,94,29.98,2.0,SW,5.8,-,N/A,,Overcast,220,2013-02-24 14:38:00
9:53 AM,72.0,70.0,93,29.98,2.5,SSW,6.9,-,N/A,,Overcast,210,2013-02-24 14:53:00
10:41 AM,75.2,69.8,83,29.98,8.0,SW,9.2,-,N/A,,Overcast,220,2013-02-24 15:41:00
10:53 AM,75.9,70.0,82,29.97,8.0,SSW,11.5,-,N/A,,Overcast,210,2013-02-24 15:53:00
11:11 AM,75.2,69.8,83,29.98,8.0,South,8.1,-,N/A,,Overcast,190,2013-02-24 16:11:00
11:21 AM,75.2,69.8,83,29.98,7.0,SSW,6.9,-,N/A,,Overcast,200,2013-02-24 16:21:00
11:30 AM,75.2,69.8,83,29.98,7.0,SW,6.9,-,N/A,,Overcast,220,2013-02-24 16:30:00
11:53 AM,75.9,69.1,79,29.97,8.0,South,5.8,-,N/A,,Overcast,180,2013-02-24 16:53:00
12:06 PM,75.2,69.8,83,29.97,8.0,South,4.6,-,N/A,,Overcast,190,2013-02-24 17:06:00
12:50 PM,77.0,69.8,78,29.96,10.0,WNW,9.2,-,N/A,,Overcast,290,2013-02-24 17:50:00
12:53 PM,75.9,69.1,79,29.96,10.0,NW,12.7,19.6,N/A,,Overcast,320,2013-02-24 17:53:00
1:11 PM,73.4,69.8,88,29.96,10.0,NNW,11.5,-,0.00,,Overcast,330,2013-02-24 18:11:00
1:29 PM,75.2,69.8,83,29.96,10.0,NNW,8.1,-,0.00,,Mostly Cloudy,340,2013-02-24 18:29:00
1:39 PM,75.2,69.8,83,29.96,10.0,NNW,6.9,-,0.00,,Mostly Cloudy,340,2013-02-24 18:39:00
1:53 PM,75.0,70.0,84,29.95,10.0,Variable,4.6,-,0.00,,Overcast,0,2013-02-24 18:53:00
2:53 PM,75.9,70.0,82,29.94,10.0,NNW,8.1,-,N/A,,Overcast,330,2013-02-24 19:53:00
3:40 PM,73.4,69.8,88,29.94,10.0,NNW,6.9,-,0.00,,Overcast,340,2013-02-24 20:40:00
3:53 PM,75.0,70.0,84,29.94,10.0,NNW,8.1,-,0.00,,Overcast,340,2013-02-24 20:53:00
4:53 PM,75.9,69.1,79,29.94,10.0,NNE,6.9,-,N/A,,Overcast,30,2013-02-24 21:53:00
5:11 PM,71.6,68.0,88,29.93,10.0,ENE,12.7,-,N/A,,Overcast,60,2013-02-24 22:11:00
5:25 PM,71.6,68.0,88,29.94,10.0,ENE,11.5,-,N/A,,Overcast,60,2013-02-24 22:25:00
5:53 PM,70.0,66.0,87,29.94,10.0,ENE,9.2,-,N/A,,Overcast,60,2013-02-24 22:53:00
6:20 PM,69.8,66.2,88,29.94,10.0,NE,9.2,-,N/A,,Overcast,50,2013-02-24 23:20:00
6:28 PM,69.8,66.2,88,29.95,10.0,ENE,8.1,-,N/A,,Overcast,60,2013-02-24 23:28:00
6:53 PM,68.0,64.9,90,29.95,10.0,ENE,8.1,-,N/A,,Overcast,60,2013-02-24 23:53:00
7:10 PM,68.0,64.4,88,29.96,10.0,NE,8.1,-,N/A,,Overcast,50,2013-02-25 00:10:00
7:53 PM,66.9,64.0,90,29.97,10.0,ENE,5.8,-,N/A,,Overcast,60,2013-02-25 00:53:00
8:53 PM,66.0,64.9,96,29.98,10.0,East,4.6,-,N/A,,Overcast,80,2013-02-25 01:53:00
9:53 PM,66.0,64.9,96,29.98,10.0,East,4.6,-,N/A,,Overcast,80,2013-02-25 02:53:00
10:53 PM,66.0,64.9,96,29.96,10.0,ENE,4.6,-,N/A,,Mostly Cloudy,70,2013-02-25 03:53:00
11:53 PM,66.0,64.9,96,29.96,10.0,Calm,Calm,-,N/A,,Overcast,0,2013-02-25 04:53:00